createdAt,value
2023-11-11T00:11:13.324Z,80.41
2023-11-11T00:26:17.612Z,80.78
2023-11-11T00:41:22.152Z,80.42
2023-11-11T00:56:26.487Z,80.91
2023-11-11T01:11:30.853Z,80.75
2023-11-11T01:26:34.752Z,80.58
2023-11-11T01:41:38.553Z,80.59
2023-11-11T01:56:42.588Z,81.56
2023-11-11T02:11:52.869Z,81.58
2023-11-11T02:26:56.880Z,81.83
2023-11-11T02:42:00.690Z,81.38
2023-11-11T02:57:05.023Z,81.22
2023-11-11T03:12:11.319Z,81.47
2023-11-11T03:27:15.537Z,81.35
2023-11-11T03:42:19.324Z,81.53
2023-11-11T03:57:23.163Z,81.11
2023-11-11T04:12:26.983Z,81.36
2023-11-11T04:27:30.845Z,81.40
2023-11-11T04:42:36.585Z,81.29
2023-11-11T04:57:41.946Z,81.76
2023-11-11T05:12:48.743Z,82.31
2023-11-11T05:27:52.980Z,82.10
2023-11-11T05:42:59.181Z,82.43
2023-11-11T05:58:03.760Z,82.53
2023-11-11T06:13:07.923Z,82.52
2023-11-11T06:28:11.904Z,82.66
2023-11-11T06:43:15.890Z,82.72
2023-11-11T07:04:54.269Z,83.47
2023-11-11T07:19:58.459Z,83.66
2023-11-11T07:35:01.371Z,84.37
2023-11-11T07:50:04.928Z,85.45
2023-11-11T08:05:08.751Z,86.08
2023-11-11T08:20:16.543Z,86.63
2023-11-11T08:35:19.752Z,86.29
2023-11-11T08:50:22.624Z,85.96
2023-11-11T09:05:25.945Z,85.94
2023-11-11T09:20:29.997Z,85.98
2023-11-11T09:35:32.755Z,85.95
2023-11-11T09:50:35.505Z,85.51
2023-11-11T10:05:38.528Z,84.92
2023-11-11T10:20:45.671Z,83.91
2023-11-11T10:35:48.412Z,82.74
2023-11-11T10:50:53.815Z,81.73
2023-11-11T11:06:37.698Z,80.63
2023-11-11T11:21:40.415Z,79.66
2023-11-11T11:36:58.832Z,78.91
2023-11-11T11:52:01.368Z,77.89
2023-11-11T12:07:08.726Z,76.74
2023-11-11T12:22:13.620Z,76.03
2023-11-11T12:37:20.794Z,74.77
2023-11-11T12:52:27.486Z,74.46
2023-11-11T13:07:31.349Z,73.77
2023-11-11T13:22:34.122Z,73.52
2023-11-11T13:37:38.081Z,72.58
2023-11-11T13:52:40.546Z,72.57
2023-11-11T14:07:43.849Z,73.01
2023-11-11T14:22:54.838Z,74.11
2023-11-11T14:38:01.863Z,74.85
2023-11-11T14:53:04.717Z,75.64
2023-11-11T15:08:07.410Z,76.16
2023-11-11T15:23:12.466Z,76.45
2023-11-11T15:38:17.345Z,76.66
2023-11-11T15:53:21.351Z,76.64
2023-11-11T16:08:23.892Z,77.04
2023-11-11T16:23:27.005Z,77.48
2023-11-11T16:38:30.230Z,78.34
2023-11-11T16:53:34.296Z,78.89
2023-11-11T17:08:38.364Z,79.37
2023-11-11T17:23:41.793Z,79.45
2023-11-11T17:38:44.367Z,79.64
2023-11-11T17:53:47.617Z,79.46
2023-11-11T18:08:50.092Z,79.35
2023-11-11T18:23:54.097Z,79.74
2023-11-11T18:38:56.532Z,80.29
2023-11-11T18:53:59.321Z,80.36
2023-11-11T19:09:01.849Z,80.48
2023-11-11T19:24:09.691Z,80.68
2023-11-11T19:39:12.458Z,80.89
2023-11-11T19:54:17.200Z,80.87
2023-11-11T20:09:21.195Z,81.03
2023-11-11T20:24:23.657Z,81.11
2023-11-11T20:39:27.443Z,81.23
2023-11-11T20:54:32.475Z,81.49
2023-11-11T21:09:37.248Z,81.52
2023-11-11T21:24:39.999Z,81.88
2023-11-11T21:39:45.254Z,82.15
2023-11-11T21:54:48.149Z,82.03
2023-11-11T22:09:52.015Z,82.09
2023-11-11T22:24:54.887Z,82.18
2023-11-11T22:39:57.394Z,82.48
2023-11-11T22:54:59.919Z,82.38
2023-11-11T23:10:02.292Z,82.79
2023-11-11T23:25:05.488Z,82.90
2023-11-11T23:40:09.293Z,83.04
2023-11-11T23:55:11.844Z,83.18
